• Join FlightAware (Why Join?)
  • Login
  • US Flag 
10:13AM EDT


 

Airport Tracker/Info


-or-


 

Live Flight TrackerFlight Track Log ✈ CSQ503 ✈ 12-Jun-2012 ✈ KMIA - MKJS / MBJ

Flight Track Log - Related Links

Times and Time Zones

All times are in EDT time to prevent confusion due to time zone crossing. See the CSQ503 flight status page for this flight to view local times or setup timezone preferences in your user account.

Time Position Orientation Groundspeed Altitude Reporting Facility
EDT Latitude Longitude Course Direction KTS MPH feet Rate Location/Type
10:14AM 25.8003 -80.2744 144° Southeast 150 173 500  Level Miami Center
10:15AM 25.7614 -80.2433 161° South 150 173 2,100 1,140 Climbing Miami Center
10:16AM 25.7158 -80.2261 170° South 153 176 3,500 1,080 Climbing Miami Center
10:17AM 25.6742 -80.2181 188° South 175 201 4,400 1,020 Climbing Miami Center
10:18AM 25.6217 -80.2258 157° South 183 211 5,500 960 Climbing Miami Center
10:19AM 25.5681 -80.2011 143° Southeast 177 204 6,500 840 Climbing Miami Center
10:20AM 25.5311 -80.1703 139° Southeast 183 211 7,300 840 Climbing Miami Center
10:21AM 25.4922 -80.1322 137° Southeast 183 211 8,200 780 Climbing Miami Center
10:22AM 25.4739 -80.1133 148° Southeast 181 208 8,500 660 Climbing Miami Center
10:23AM 25.4286 -80.0822 147° Southeast 186 214 9,200 720 Climbing Miami Center
10:24AM 25.3853 -80.0514 148° Southeast 186 214 10,000 780 Climbing Miami Center
10:25AM 25.3400 -80.0203 144° Southeast 191 220 10,800 660 Climbing Miami Center
10:26AM 25.2989 -79.9869 148° Southeast 191 220 11,400 600 Climbing Miami Center
10:27AM 25.2536 -79.9558 145° Southeast 186 214 12,100 600 Climbing Miami Center
10:28AM 25.2106 -79.9228 149° Southeast 186 214 12,600 480 Climbing Miami Center
10:29AM 25.1631 -79.8917 147° Southeast 191 220 13,100 600 Climbing Miami Center
10:30AM 25.1200 -79.8608 146° Southeast 191 220 13,800 600 Climbing Miami Center
10:31AM 25.0786 -79.8300 147° Southeast 191 220 14,300 480 Climbing Miami Center
10:32AM 25.0356 -79.7992 147° Southeast 191 220 14,800 480 Climbing Miami Center
10:33AM 24.9922 -79.7683 146° Southeast 186 214 15,300 480 Climbing Miami Center
10:34AM 24.9511 -79.7375 150° Southeast 186 214 15,800 360 Climbing Miami Center
10:35AM 24.9056 -79.7089 147° Southeast 191 220 16,100 120 Climbing Miami Center
10:36AM 24.8561 -79.6733 148° Southeast 197 227 16,100  Level Miami Center
10:37AM 24.8003 -79.6356 145° Southeast 211 243 16,200 300 Climbing Miami Center
10:38AM 24.7508 -79.5978 150° Southeast 221 254 16,700 480 Climbing Miami Center
10:39AM 24.6994 -79.5647 149° Southeast 221 254 17,200 480 Climbing Miami Center
10:40AM 24.6497 -79.5317 142° Southeast 216 249 17,700 360 Climbing Miami Center
10:41AM 24.6086 -79.4964 152° Southeast 203 234 18,000 300 Climbing Miami Center
10:42AM 24.5611 -79.4681 147° Southeast 198 228 18,400 300 Climbing Miami Center
10:43AM 24.5156 -79.4350 145° Southeast 198 228 18,700 300 Climbing Miami Center
10:44AM 24.4703 -79.4000 148° Southeast 198 228 19,000 120 Climbing Miami Center
10:45AM 24.4186 -79.3647 145° Southeast 209 241 19,000  Level Miami Center
10:46AM 24.3692 -79.3272 159° South 209 241 19,000  Level Miami Center
10:47AM 24.3069 -79.3008 168° South 219 252 19,000  Level Miami Center
10:48AM 24.2425 -79.2858 172° South 232 267 19,000  Level Miami Center
10:49AM 24.1736 -79.2756 167° South 245 282 19,000  Level Miami Center
10:50AM 24.1050 -79.2583 172° South 245 282 19,000  Level Miami Center
10:51AM 24.0403 -79.2478 151° Southeast 245 282 19,000  Level Miami Center
10:58AM 23.6578 -79.0205 169° South  Level FlightAware Approximate
10:59AM 23.5910 -79.0060 169° South  Level FlightAware Approximate
11:00AM 23.5241 -78.9916 169° South  Level FlightAware Approximate
11:01AM 23.4572 -78.9771 169° South  Level FlightAware Approximate
11:02AM 23.3903 -78.9627 169° South  Level FlightAware Approximate
11:03AM 23.3234 -78.9483 169° South  Level FlightAware Approximate
11:04AM 23.2565 -78.9340 169° South  Level FlightAware Approximate
11:05AM 23.1896 -78.9196 169° South  Level FlightAware Approximate
11:06AM 23.1227 -78.9052 169° South  Level FlightAware Approximate
11:07AM 23.0558 -78.8909 169° South  Level FlightAware Approximate
11:08AM 22.9889 -78.8765 169° South  Level FlightAware Approximate
11:09AM 22.9220 -78.8622 169° South  Level FlightAware Approximate
11:10AM 22.8551 -78.8479 169° South  Level FlightAware Approximate
11:11AM 22.7882 -78.8336 169° South  Level FlightAware Approximate
11:12AM 22.7213 -78.8194 169° South  Level FlightAware Approximate
11:13AM 22.6544 -78.8051 169° South  Level FlightAware Approximate
11:14AM 22.5874 -78.7909 169° South  Level FlightAware Approximate
11:15AM 22.5205 -78.7767 169° South  Level FlightAware Approximate
11:16AM 22.4536 -78.7624 169° South  Level FlightAware Approximate
11:17AM 22.3867 -78.7482 169° South  Level FlightAware Approximate
11:18AM 22.3198 -78.7340 169° South  Level FlightAware Approximate
11:19AM 22.2529 -78.7199 169° South  Level FlightAware Approximate
11:20AM 22.1860 -78.7057 169° South  Level FlightAware Approximate
11:21AM 22.1190 -78.6916 169° South  Level FlightAware Approximate
11:22AM 22.0521 -78.6774 169° South  Level FlightAware Approximate
11:23AM 21.9853 -78.6628 169° South  Level FlightAware Approximate
11:24AM 21.9185 -78.6481 169° South  Level FlightAware Approximate
11:25AM 21.8517 -78.6335 169° South  Level FlightAware Approximate
11:26AM 21.7848 -78.6189 169° South  Level FlightAware Approximate
11:27AM 21.7180 -78.6043 169° South  Level FlightAware Approximate
11:28AM 21.6512 -78.5897 169° South  Level FlightAware Approximate
11:29AM 21.5843 -78.5752 169° South  Level FlightAware Approximate
11:30AM 21.5175 -78.5606 169° South  Level FlightAware Approximate
11:31AM 21.4507 -78.5461 169° South  Level FlightAware Approximate
11:32AM 21.3839 -78.5315 169° South  Level FlightAware Approximate
11:33AM 21.3170 -78.5170 169° South  Level FlightAware Approximate
11:34AM 21.2502 -78.5025 169° South  Level FlightAware Approximate
11:35AM 21.1833 -78.4880 169° South  Level FlightAware Approximate
11:36AM 21.1165 -78.4735 169° South  Level FlightAware Approximate
11:37AM 21.0497 -78.4591 169° South  Level FlightAware Approximate
11:38AM 20.9828 -78.4446 169° South  Level FlightAware Approximate
11:39AM 20.9160 -78.4302 169° South  Level FlightAware Approximate
11:40AM 20.8491 -78.4158 169° South  Level FlightAware Approximate
11:41AM 20.7823 -78.4013 169° South  Level FlightAware Approximate
11:42AM 20.7155 -78.3869 169° South  Level FlightAware Approximate
11:43AM 20.6486 -78.3726 169° South  Level FlightAware Approximate
11:44AM 20.5818 -78.3582 169° South  Level FlightAware Approximate
11:45AM 20.5149 -78.3438 169° South  Level FlightAware Approximate
11:46AM 20.4481 -78.3295 169° South  Level FlightAware Approximate
11:47AM 20.3812 -78.3151 169° South  Level FlightAware Approximate
11:48AM 20.3144 -78.3008 169° South  Level FlightAware Approximate
11:49AM 20.2475 -78.2865 169° South  Level FlightAware Approximate
11:50AM 20.1807 -78.2722 169° South  Level FlightAware Approximate
11:51AM 20.1138 -78.2579 169° South  Level FlightAware Approximate
11:52AM 20.0469 -78.2436 169° South  Level FlightAware Approximate
11:53AM 19.9801 -78.2293 169° South  Level FlightAware Approximate
11:54AM 19.9132 -78.2151 169° South  Level FlightAware Approximate
11:55AM 19.8464 -78.2009 169° South  Level FlightAware Approximate
11:56AM 19.7795 -78.1866 169° South  Level FlightAware Approximate
11:57AM 19.7126 -78.1724 169° South  Level FlightAware Approximate
11:58AM 19.6458 -78.1582 200° South  Level FlightAware Approximate
11:59AM 19.5820 -78.1830 167° South  Level FlightAware Approximate
12:00PM 19.5156 -78.1665 167° South  Level FlightAware Approximate
12:01PM 19.4492 -78.1501 167° South  Level FlightAware Approximate
12:02PM 19.3827 -78.1337 167° South  Level FlightAware Approximate
12:03PM 19.3163 -78.1173 164° South  Level FlightAware Approximate
12:04PM 19.2510 -78.0969 167° South  Level FlightAware Approximate
12:05PM 19.1845 -78.0808 167° South  Level FlightAware Approximate
12:06PM 19.1180 -78.0648 172° South  Level FlightAware Approximate
12:07PM 19.0511 -78.0554 167° South  Level FlightAware Approximate
12:08PM 18.9848 -78.0386 167° South  Level FlightAware Approximate
12:09PM 18.9184 -78.0219 169° South  Level FlightAware Approximate
12:10PM 18.8515 -78.0087 166° South  Level FlightAware Approximate
12:11PM 18.7853 -77.9913 158° South  Level FlightAware Approximate
12:12PM 18.7244 -77.9649 168° South  Level FlightAware Approximate
12:13PM 18.6575 -77.9505 170° South  Level FlightAware Approximate
12:14PM 18.5904 -77.9381 168° South  Level FlightAware Approximate
12:15PM 18.5238 -77.9226 156° South  Level FlightAware Approximate
12:16PM 18.4614 -77.8939 351° North  Level Estimated
12:17PM 18.5000 -77.9000 286° West  Level FlightAware Approximate
12:18PM 18.5192 -77.9690 106° East  Level Estimated
12:19PM 18.5000 -77.9000 286° West  Level FlightAware Approximate
12:20PM 18.5192 -77.9690 106° East  Level Estimated
12:21PM 18.5000 -77.9000 286° West  Level FlightAware Approximate
12:22PM 18.5192 -77.9690 286° West  Level Estimated